createdAt,value
2018-08-31T00:00:38.999Z,95.20
2018-08-31T00:03:13.408Z,95.50
2018-08-31T00:05:58.891Z,96.20
2018-08-31T00:08:41.298Z,95.80
2018-08-31T00:11:32.573Z,96.10
2018-08-31T00:14:06.251Z,95.70
2018-08-31T00:16:40.483Z,95.00
2018-08-31T00:19:17.575Z,95.10
2018-08-31T00:21:52.629Z,95.50
2018-08-31T00:24:35.568Z,95.00
2018-08-31T00:27:18.501Z,94.30
2018-08-31T00:30:00.758Z,94.20
2018-08-31T00:36:49.713Z,93.90
2018-08-31T00:41:38.822Z,95.70
2018-08-31T00:46:26.057Z,97.10
2018-08-31T00:49:00.091Z,96.50
2018-08-31T00:51:33.740Z,97.50
2018-08-31T00:54:09.804Z,97.30
2018-08-31T00:56:44.146Z,96.30
2018-08-31T00:59:17.856Z,96.20
2018-08-31T01:01:52.125Z,95.80
2018-08-31T01:04:27.008Z,95.90
2018-08-31T01:07:04.339Z,96.40
2018-08-31T01:09:59.861Z,96.60
2018-08-31T01:12:33.737Z,95.80
2018-08-31T01:15:07.702Z,96.20
2018-08-31T01:17:42.464Z,95.90
2018-08-31T01:20:17.938Z,95.90
2018-08-31T01:22:51.848Z,95.80
2018-08-31T01:25:26.988Z,95.20
2018-08-31T01:28:01.801Z,95.70
2018-08-31T01:30:38.618Z,96.10
2018-08-31T01:33:15.169Z,96.90
2018-08-31T01:35:52.157Z,96.90
2018-08-31T01:38:26.672Z,97.70
2018-08-31T01:41:00.851Z,98.60
2018-08-31T01:43:37.757Z,99.30
2018-08-31T01:46:11.295Z,99.90
2018-08-31T01:48:44.599Z,99.90
2018-08-31T01:51:23.505Z,99.90
2018-08-31T01:53:59.069Z,99.90
2018-08-31T01:56:35.604Z,99.90
2018-08-31T01:59:09.355Z,99.90
2018-08-31T02:01:46.628Z,99.90
2018-08-31T02:04:25.549Z,99.90
2018-08-31T02:07:01.056Z,99.90
2018-08-31T02:09:37.799Z,99.90
2018-08-31T02:12:14.420Z,99.90
2018-08-31T02:14:49.757Z,99.90
2018-08-31T02:17:28.639Z,99.90
2018-08-31T02:20:02.903Z,99.90
2018-08-31T02:22:37.796Z,99.90
2018-08-31T02:25:11.361Z,99.90
2018-08-31T02:27:45.143Z,99.90
2018-08-31T02:30:19.573Z,99.90
2018-08-31T02:32:53.574Z,99.90
2018-08-31T02:35:27.821Z,99.90
2018-08-31T02:38:02.173Z,99.90
2018-08-31T02:40:37.972Z,99.90
2018-08-31T02:43:12.904Z,99.90
2018-08-31T02:45:47.846Z,99.90
2018-08-31T02:48:21.306Z,99.90
2018-08-31T02:50:54.600Z,99.90
2018-08-31T02:53:42.690Z,99.90
2018-08-31T02:56:17.479Z,99.90
2018-08-31T02:58:55.181Z,99.90
2018-08-31T03:01:30.229Z,99.90
2018-08-31T03:04:05.851Z,99.90
2018-08-31T03:06:40.891Z,99.90
2018-08-31T03:09:15.270Z,99.90
2018-08-31T03:11:53.503Z,99.90
2018-08-31T03:14:26.889Z,99.90
2018-08-31T03:17:00.216Z,99.90
2018-08-31T03:19:33.044Z,99.90
2018-08-31T03:22:08.204Z,99.90
2018-08-31T03:24:43.380Z,99.90
2018-08-31T03:27:17.874Z,99.90
2018-08-31T03:29:55.960Z,99.90
2018-08-31T03:32:31.754Z,99.90
2018-08-31T03:35:07.310Z,99.90
2018-08-31T03:42:35.532Z,99.90
2018-08-31T03:45:11.708Z,99.90
2018-08-31T03:47:45.516Z,99.90
2018-08-31T03:50:23.853Z,99.90
2018-08-31T03:52:57.347Z,99.90
2018-08-31T03:55:32.677Z,99.90
2018-08-31T03:58:07.822Z,99.90
2018-08-31T04:00:43.194Z,99.90
2018-08-31T04:03:18.076Z,99.90
2018-08-31T04:05:52.989Z,99.90
2018-08-31T04:08:26.972Z,99.90
2018-08-31T04:11:01.184Z,99.90
2018-08-31T04:13:36.085Z,99.90
2018-08-31T04:16:10.438Z,99.90
2018-08-31T04:18:47.013Z,99.90
2018-08-31T04:21:20.711Z,99.90
2018-08-31T04:23:54.535Z,99.90
2018-08-31T04:26:29.097Z,99.90
2018-08-31T04:29:02.922Z,99.90
2018-08-31T04:31:37.288Z,99.90
2018-08-31T04:34:11.730Z,99.90
2018-08-31T04:36:46.795Z,99.90
2018-08-31T04:39:23.080Z,99.90
2018-08-31T04:41:57.542Z,99.90
2018-08-31T04:44:30.834Z,99.90
2018-08-31T04:47:04.483Z,99.90
2018-08-31T04:49:39.203Z,99.90
2018-08-31T04:52:13.605Z,99.90
2018-08-31T04:54:50.207Z,99.90
2018-08-31T04:57:24.410Z,99.90
2018-08-31T04:59:58.917Z,99.90
2018-08-31T05:02:35.613Z,99.90
2018-08-31T05:05:10.154Z,99.90
2018-08-31T05:07:43.523Z,99.90
2018-08-31T05:10:17.079Z,99.90
2018-08-31T05:12:50.850Z,99.90
2018-08-31T05:15:25.984Z,99.90
2018-08-31T05:17:59.590Z,99.90
2018-08-31T05:20:33.391Z,99.90
2018-08-31T05:23:08.592Z,99.90
2018-08-31T05:25:42.172Z,99.90
2018-08-31T05:28:15.561Z,99.90
2018-08-31T05:30:50.760Z,99.90
2018-08-31T05:33:24.826Z,99.90
2018-08-31T05:35:58.290Z,99.90
2018-08-31T05:38:34.797Z,99.90
2018-08-31T05:41:08.883Z,99.90
2018-08-31T05:43:44.747Z,99.90
2018-08-31T05:46:18.201Z,99.90
2018-08-31T05:48:51.869Z,99.90
2018-08-31T05:51:24.972Z,99.90
2018-08-31T05:54:02.965Z,99.90
2018-08-31T05:56:37.844Z,99.90
2018-08-31T05:59:13.201Z,99.90
2018-08-31T06:01:50.854Z,99.90
2018-08-31T06:04:24.484Z,99.90
2018-08-31T06:06:58.499Z,99.90
2018-08-31T06:09:32.556Z,99.90
2018-08-31T06:12:05.834Z,99.90
2018-08-31T06:14:39.342Z,99.90
2018-08-31T06:17:13.096Z,99.90
2018-08-31T06:19:46.249Z,99.90
2018-08-31T06:22:19.602Z,99.90
2018-08-31T06:24:53.065Z,99.90
2018-08-31T06:27:27.186Z,99.90
2018-08-31T06:30:01.221Z,99.90
2018-08-31T06:32:34.406Z,99.90
2018-08-31T06:35:09.980Z,99.90
2018-08-31T06:37:42.976Z,99.90
2018-08-31T06:40:17.514Z,99.90
2018-08-31T06:42:50.912Z,99.90
2018-08-31T06:45:27.902Z,99.90
2018-08-31T06:48:01.900Z,99.90
2018-08-31T06:50:35.614Z,99.90
2018-08-31T06:53:09.062Z,99.90
2018-08-31T06:55:44.766Z,99.90
2018-08-31T06:58:22.938Z,99.90
2018-08-31T07:00:56.727Z,99.90
2018-08-31T07:03:30.267Z,99.90
2018-08-31T07:06:03.396Z,99.90
2018-08-31T07:08:38.585Z,99.90
2018-08-31T07:11:13.323Z,99.90
2018-08-31T07:13:47.110Z,99.90
2018-08-31T07:16:21.352Z,99.90
2018-08-31T07:19:01.461Z,99.90
2018-08-31T07:21:34.708Z,99.90
2018-08-31T07:24:08.864Z,99.90
2018-08-31T07:26:44.563Z,99.90
2018-08-31T07:29:18.543Z,99.90
2018-08-31T07:31:53.895Z,99.90
2018-08-31T07:34:26.996Z,99.90
2018-08-31T07:37:00.352Z,99.90
2018-08-31T07:39:33.921Z,99.90
2018-08-31T07:42:07.705Z,99.90
2018-08-31T07:44:45.523Z,99.90
2018-08-31T14:35:11.760Z,99.90
2018-08-31T14:37:45.540Z,99.90
2018-08-31T14:40:20.153Z,99.90
2018-08-31T14:42:54.804Z,99.90
2018-08-31T14:45:32.528Z,99.90
2018-08-31T14:48:07.668Z,99.90
2018-08-31T14:50:41.674Z,99.90
2018-08-31T14:53:16.128Z,99.90
2018-08-31T14:55:50.453Z,99.90
2018-08-31T14:58:24.008Z,99.90
2018-08-31T15:00:58.638Z,99.90
2018-08-31T15:03:32.362Z,99.90
2018-08-31T15:06:05.854Z,99.90
2018-08-31T15:08:39.172Z,99.90
2018-08-31T15:11:13.370Z,99.90
2018-08-31T15:13:46.465Z,99.90
2018-08-31T15:16:22.591Z,99.90
2018-08-31T15:18:55.973Z,99.90
2018-08-31T15:21:28.801Z,99.90
2018-08-31T15:24:02.286Z,99.90
2018-08-31T15:26:35.802Z,99.90
2018-08-31T15:29:08.611Z,99.90
2018-08-31T15:31:41.415Z,99.90
2018-08-31T15:34:17.687Z,99.90
2018-08-31T15:36:51.694Z,99.90
2018-08-31T15:39:25.905Z,99.90
2018-08-31T15:42:01.328Z,99.90
2018-08-31T15:44:36.166Z,99.90
2018-08-31T15:47:09.571Z,99.90
2018-08-31T15:49:43.765Z,99.90
2018-08-31T15:52:17.055Z,99.90
2018-08-31T15:54:50.246Z,99.90
2018-08-31T15:57:23.562Z,99.90
2018-08-31T15:59:57.166Z,99.90
2018-08-31T16:02:30.866Z,99.90
2018-08-31T16:05:04.139Z,99.90
2018-08-31T16:07:37.426Z,99.90
2018-08-31T16:10:11.360Z,99.90
2018-08-31T16:12:46.878Z,99.90
2018-08-31T16:15:20.068Z,99.90
2018-08-31T16:17:53.231Z,99.90
2018-08-31T16:20:26.040Z,99.90
2018-08-31T16:22:59.427Z,99.90
2018-08-31T16:25:32.924Z,99.90
2018-08-31T16:28:07.397Z,99.90
2018-08-31T16:30:41.153Z,99.90
2018-08-31T16:33:14.395Z,99.90
2018-08-31T16:35:47.684Z,99.90
2018-08-31T16:38:20.911Z,99.90
2018-08-31T16:40:54.416Z,99.90
2018-08-31T16:43:27.775Z,99.90
2018-08-31T16:46:01.032Z,99.90
2018-08-31T16:48:34.372Z,99.90
2018-08-31T16:51:07.715Z,99.90
2018-08-31T16:53:41.163Z,99.90
2018-08-31T16:56:14.647Z,99.90
2018-08-31T16:58:49.182Z,99.90
2018-08-31T17:01:22.435Z,99.90
2018-08-31T17:03:56.059Z,99.90
2018-08-31T17:06:29.522Z,99.90
2018-08-31T17:09:03.371Z,99.90
2018-08-31T17:11:38.671Z,99.90
2018-08-31T17:14:12.387Z,99.90
2018-08-31T17:16:45.369Z,99.90
2018-08-31T17:19:19.208Z,99.90
2018-08-31T17:21:52.427Z,99.90
2018-08-31T17:24:25.792Z,99.90
2018-08-31T17:27:03.416Z,99.90
2018-08-31T17:29:42.532Z,99.90
2018-08-31T17:32:21.298Z,99.90
2018-08-31T17:34:58.736Z,99.90
2018-08-31T17:37:38.107Z,99.90
2018-08-31T17:40:11.511Z,99.90
2018-08-31T17:42:45.375Z,99.90
2018-08-31T17:45:22.252Z,99.90
2018-08-31T17:47:56.956Z,99.90
2018-08-31T17:50:30.306Z,99.90
2018-08-31T17:53:03.882Z,99.90
2018-08-31T17:55:37.188Z,99.90
2018-08-31T17:58:10.598Z,99.90
2018-08-31T18:00:43.820Z,99.90
2018-08-31T18:03:17.094Z,99.90
2018-08-31T18:05:50.738Z,99.90
2018-08-31T18:08:26.014Z,99.90
2018-08-31T18:10:59.287Z,99.90
2018-08-31T18:13:33.218Z,99.90
2018-08-31T18:16:06.866Z,99.90
2018-08-31T18:18:43.325Z,99.90
2018-08-31T18:21:17.353Z,99.90
2018-08-31T18:23:50.560Z,99.90
2018-08-31T18:26:25.198Z,99.90
2018-08-31T18:29:00.159Z,99.90
2018-08-31T18:31:33.807Z,99.90
2018-08-31T18:34:07.775Z,99.90
2018-08-31T18:36:41.100Z,99.90
2018-08-31T18:39:15.614Z,99.90
2018-08-31T18:41:49.114Z,99.90
2018-08-31T18:44:22.214Z,99.90
2018-08-31T18:46:59.051Z,99.90
2018-08-31T18:49:33.682Z,99.90
2018-08-31T18:52:06.919Z,99.90
2018-08-31T18:54:40.002Z,99.90
2018-08-31T18:57:13.680Z,99.90
2018-08-31T18:59:47.746Z,99.90
2018-08-31T19:02:26.297Z,99.90
2018-08-31T19:05:00.108Z,99.90
2018-08-31T19:07:34.836Z,99.90
2018-08-31T19:10:12.978Z,99.90
2018-08-31T19:12:46.269Z,99.90
2018-08-31T19:15:20.243Z,99.90
2018-08-31T19:17:55.104Z,99.90
2018-08-31T19:20:29.369Z,99.90
2018-08-31T19:23:02.657Z,99.90
2018-08-31T19:25:36.019Z,99.90
2018-08-31T19:28:09.281Z,99.90
2018-08-31T19:30:44.556Z,99.90
2018-08-31T19:33:18.341Z,99.90
2018-08-31T19:35:55.841Z,99.90
2018-08-31T19:38:29.575Z,99.90
2018-08-31T19:41:04.483Z,99.90
2018-08-31T19:43:37.837Z,99.90
2018-08-31T19:46:11.769Z,99.90
2018-08-31T19:48:47.923Z,99.90
2018-08-31T19:51:21.751Z,99.90
2018-08-31T19:53:57.839Z,99.90
2018-08-31T19:56:33.945Z,99.90
2018-08-31T19:59:07.420Z,99.90
2018-08-31T20:01:42.326Z,99.90
2018-08-31T20:04:15.434Z,99.90
2018-08-31T20:06:49.637Z,99.90
2018-08-31T20:09:25.564Z,99.90
2018-08-31T20:11:59.186Z,99.90
2018-08-31T20:14:33.512Z,99.90
2018-08-31T20:17:07.046Z,99.90
2018-08-31T20:19:40.725Z,99.90
2018-08-31T20:22:15.028Z,99.90
2018-08-31T20:24:48.247Z,99.90
2018-08-31T20:27:22.512Z,99.90
2018-08-31T20:29:56.215Z,99.90
2018-08-31T20:32:30.713Z,99.90
2018-08-31T20:35:04.062Z,99.90
2018-08-31T20:37:40.121Z,99.90
2018-08-31T20:40:13.620Z,99.90
2018-08-31T20:42:48.583Z,99.90
2018-08-31T20:45:24.483Z,99.90
2018-08-31T20:47:59.193Z,99.90
2018-08-31T20:50:33.995Z,99.90
2018-08-31T20:53:08.299Z,99.90
2018-08-31T20:55:41.968Z,99.90
2018-08-31T20:58:19.418Z,99.90
2018-08-31T21:00:53.077Z,99.90
2018-08-31T21:03:27.612Z,99.90
2018-08-31T21:06:03.188Z,99.90
2018-08-31T21:08:36.535Z,99.90
2018-08-31T21:11:09.801Z,99.90
2018-08-31T21:13:44.461Z,99.90
2018-08-31T21:16:19.150Z,99.90
2018-08-31T21:18:54.495Z,99.90
2018-08-31T21:21:30.162Z,99.90
2018-08-31T21:24:03.087Z,99.90
2018-08-31T21:26:39.587Z,99.90
2018-08-31T21:29:14.082Z,99.90
2018-08-31T21:31:48.116Z,99.90
2018-08-31T21:34:26.113Z,99.90
2018-08-31T21:36:59.506Z,99.90
2018-08-31T21:39:34.210Z,99.90
2018-08-31T21:42:08.592Z,99.90
2018-08-31T21:44:44.804Z,99.90
2018-08-31T21:47:21.233Z,99.90
2018-08-31T21:49:54.808Z,99.90
2018-08-31T21:52:28.657Z,99.90
2018-08-31T21:55:02.482Z,99.90
2018-08-31T21:57:41.430Z,99.90
2018-08-31T22:00:18.652Z,99.90
2018-08-31T22:02:52.635Z,99.90
2018-08-31T22:05:29.562Z,99.90
2018-08-31T22:08:03.213Z,99.90
2018-08-31T22:10:37.833Z,99.90
2018-08-31T22:13:12.164Z,99.90
2018-08-31T22:15:46.542Z,99.90
2018-08-31T22:18:20.804Z,99.90
2018-08-31T22:20:54.583Z,99.90
2018-08-31T22:23:28.518Z,99.90
2018-08-31T22:26:01.776Z,99.90
2018-08-31T22:28:37.348Z,99.60
2018-08-31T22:31:11.820Z,99.90
2018-08-31T22:33:45.060Z,99.90
2018-08-31T22:36:19.219Z,99.90
2018-08-31T22:38:53.625Z,99.90
2018-08-31T22:41:33.481Z,99.90
2018-08-31T22:44:11.025Z,99.90
2018-08-31T22:46:44.777Z,99.50
2018-08-31T22:49:17.858Z,99.90
2018-08-31T22:51:51.263Z,99.60
2018-08-31T22:54:24.637Z,99.50
2018-08-31T22:56:59.596Z,99.90
2018-08-31T22:59:34.594Z,99.90
2018-08-31T23:02:09.370Z,99.40
2018-08-31T23:04:44.663Z,99.70
2018-08-31T23:08:20.356Z,99.80
2018-08-31T23:10:54.582Z,99.10
2018-08-31T23:13:39.290Z,98.70
2018-08-31T23:21:06.068Z,99.10
2018-08-31T23:23:43.497Z,99.50
2018-08-31T23:26:18.626Z,98.70
2018-08-31T23:28:53.435Z,99.50
2018-08-31T23:31:26.710Z,98.80
2018-08-31T23:34:01.677Z,99.00
2018-08-31T23:36:40.536Z,98.10
2018-08-31T23:39:15.163Z,97.50
2018-08-31T23:41:50.754Z,98.20
2018-08-31T23:44:25.496Z,97.00
2018-08-31T23:46:59.647Z,97.20
2018-08-31T23:49:32.584Z,96.00
2018-08-31T23:52:06.619Z,97.00
2018-08-31T23:54:43.493Z,96.90
2018-08-31T23:57:22.044Z,95.90
2018-08-31T23:59:59.260Z,95.80
